Time;durP1;ratioP1;P1;durP2;ratioP2;P2;SDS_P1;SDS_P2;PMS_P1;PMS_P2;Temp;Humidity;BMP_temperature;BMP_pressure;BME280_temperature;BME280_humidity;BME280_pressure;Samples;Min_cycle;Max_cycle;Signal;HPM_P1;HPM_P2
2023/12/16 00:02:16;;;;;;;4.55;3.83;;;4.80;99.90;;;;;;5014265;28;20231;-77
2023/12/16 00:04:43;;;;;;;4.38;3.97;;;4.80;99.90;;;;;;5013769;28;20202;-77
2023/12/16 00:07:10;;;;;;;4.90;4.00;;;4.70;99.90;;;;;;5013453;28;20218;-77
2023/12/16 00:09:38;;;;;;;4.43;4.00;;;4.70;99.90;;;;;;5013253;28;20213;-77
2023/12/16 00:12:06;;;;;;;3.58;2.92;;;4.70;99.90;;;;;;5013823;28;20226;-77
2023/12/16 00:14:36;;;;;;;4.70;4.10;;;4.60;99.90;;;;;;5006858;28;20666;-77
2023/12/16 04:34:53;;;;;;;3.17;2.88;;;4.50;99.90;;;;;;4959123;29;20212;-92
2023/12/16 04:44:18;;;;;;;3.30;3.00;;;4.50;99.90;;;;;;4938489;29;20289;-92
2023/12/16 04:46:45;;;;;;;2.63;2.42;;;4.40;99.90;;;;;;4939329;29;20285;-92
2023/12/16 04:52:23;;;;;;;4.18;2.95;;;4.40;99.90;;;;;;4979454;28;20215;-92
2023/12/16 04:54:52;;;;;;;3.47;2.75;;;4.40;99.90;;;;;;4978590;28;20262;-92
2023/12/16 04:57:18;;;;;;;5.15;3.08;;;4.40;99.90;;;;;;5107813;22;20234;-76
2023/12/16 04:59:46;;;;;;;3.10;2.33;;;4.40;99.90;;;;;;5008330;28;20228;-75
2023/12/16 05:02:13;;;;;;;2.40;2.20;;;4.40;99.90;;;;;;5012852;28;20234;-75
2023/12/16 05:04:40;;;;;;;3.25;2.45;;;4.40;99.90;;;;;;5013007;28;20229;-74
2023/12/16 05:07:07;;;;;;;4.03;2.50;;;4.40;99.90;;;;;;5012999;28;20213;-76
2023/12/16 05:09:33;;;;;;;2.80;2.50;;;4.40;99.90;;;;;;5012688;28;20208;-76
2023/12/16 05:12:00;;;;;;;7.30;2.65;;;4.50;99.90;;;;;;5012546;28;20606;-76
2023/12/16 05:14:27;;;;;;;3.60;3.30;;;4.50;99.90;;;;;;5012786;28;20587;-76
2023/12/16 05:16:56;;;;;;;3.00;2.55;;;4.50;99.90;;;;;;5012685;28;20212;-77
2023/12/16 05:19:22;;;;;;;2.70;2.30;;;4.50;99.90;;;;;;5012550;28;20226;-76
2023/12/16 05:21:49;;;;;;;6.55;3.33;;;4.50;99.90;;;;;;5012616;28;20230;-76
2023/12/16 05:24:18;;;;;;;2.85;2.50;;;4.50;99.90;;;;;;5012800;28;20206;-76
2023/12/16 05:26:44;;;;;;;3.55;2.80;;;4.50;99.90;;;;;;5012430;28;20225;-76
2023/12/16 05:29:11;;;;;;;7.00;3.10;;;4.50;99.90;;;;;;5012260;28;20205;-76
2023/12/16 05:31:38;;;;;;;4.60;2.75;;;4.50;99.90;;;;;;5012367;28;20233;-76
2023/12/16 05:34:07;;;;;;;2.92;2.25;;;4.50;99.90;;;;;;5012374;28;20203;-75
2023/12/16 05:36:34;;;;;;;3.50;2.70;;;4.50;99.90;;;;;;5012251;28;20211;-75
2023/12/16 05:39:00;;;;;;;2.75;2.50;;;4.50;99.90;;;;;;5008782;28;20228;-75
2023/12/16 05:41:27;;;;;;;3.50;2.95;;;4.50;99.90;;;;;;5012433;28;20230;-77
2023/12/16 05:43:54;;;;;;;3.40;2.75;;;4.50;99.90;;;;;;5012200;28;20667;-76
2023/12/16 05:46:20;;;;;;;3.25;2.92;;;4.50;99.90;;;;;;5012126;28;20213;-77
2023/12/16 05:48:47;;;;;;;3.65;3.30;;;4.60;99.90;;;;;;5012038;28;20595;-76
2023/12/16 05:51:15;;;;;;;3.20;2.50;;;4.50;99.90;;;;;;5012081;28;20231;-76
2023/12/16 05:53:42;;;;;;;4.57;2.63;;;4.60;99.90;;;;;;5012050;28;20209;-77
2023/12/16 05:56:13;;;;;;;3.60;3.30;;;4.50;99.90;;;;;;5012274;28;20671;-77
2023/12/16 05:58:39;;;;;;;3.90;2.92;;;4.50;99.90;;;;;;5011786;28;20670;-77
2023/12/16 06:01:07;;;;;;;4.45;3.17;;;4.50;99.90;;;;;;5012103;28;20241;-77
2023/12/16 06:03:34;;;;;;;4.00;2.20;;;4.50;99.90;;;;;;5011880;28;20659;-76
2023/12/16 06:06:02;;;;;;;3.85;2.60;;;4.50;99.90;;;;;;5011703;28;20213;-76
2023/12/16 06:08:30;;;;;;;3.60;2.78;;;4.50;99.90;;;;;;5012208;28;20583;-77
2023/12/16 06:10:57;;;;;;;3.90;3.00;;;4.40;99.90;;;;;;5012106;28;20241;-77
2023/12/16 06:13:23;;;;;;;4.63;3.17;;;4.40;99.90;;;;;;5012324;28;20219;-76
2023/12/16 06:15:50;;;;;;;2.33;2.13;;;4.40;99.90;;;;;;5011984;28;20230;-77
2023/12/16 06:18:17;;;;;;;3.55;2.47;;;4.30;99.90;;;;;;5011918;28;20212;-77
2023/12/16 06:20:44;;;;;;;4.07;2.88;;;4.30;99.90;;;;;;5011751;28;20237;-77
2023/12/16 06:23:11;;;;;;;2.28;2.05;;;4.30;99.90;;;;;;5011429;28;20216;-76
2023/12/16 06:25:39;;;;;;;3.35;3.00;;;4.20;99.90;;;;;;5011508;28;20829;-77
2023/12/16 06:28:05;;;;;;;3.08;2.78;;;4.20;99.90;;;;;;5009140;28;20202;-76
2023/12/16 06:30:33;;;;;;;3.50;2.80;;;4.20;99.90;;;;;;5011450;28;20305;-76
2023/12/16 06:33:00;;;;;;;3.42;2.97;;;4.20;99.90;;;;;;5011397;28;20218;-77
2023/12/16 06:35:27;;;;;;;6.15;3.20;;;4.20;99.90;;;;;;5011780;28;20209;-76
2023/12/16 06:37:54;;;;;;;4.28;3.28;;;4.20;99.90;;;;;;5011506;28;20244;-77
2023/12/16 06:40:21;;;;;;;3.15;2.95;;;4.20;99.90;;;;;;5012557;28;20225;-78
2023/12/16 06:42:49;;;;;;;2.58;2.33;;;4.20;99.90;;;;;;5012560;28;20202;-77
2023/12/16 06:45:15;;;;;;;4.10;3.70;;;4.30;99.90;;;;;;5010386;28;20455;-77
2023/12/16 06:47:42;;;;;;;3.90;3.50;;;4.20;99.90;;;;;;5011359;28;20204;-77
2023/12/16 06:50:09;;;;;;;3.80;3.15;;;4.20;99.90;;;;;;5011378;28;20695;-77
2023/12/16 06:52:36;;;;;;;3.50;2.70;;;4.20;99.90;;;;;;5011757;28;20277;-76
2023/12/16 06:55:03;;;;;;;4.32;3.38;;;4.20;99.90;;;;;;5011495;28;20205;-76
2023/12/16 06:57:30;;;;;;;3.67;2.88;;;4.20;99.90;;;;;;5011690;28;20207;-77
2023/12/16 06:59:58;;;;;;;3.28;2.95;;;4.20;99.90;;;;;;5012210;28;20221;-76
2023/12/16 07:02:25;;;;;;;3.85;3.20;;;4.20;99.90;;;;;;5006879;28;20672;-76
2023/12/16 07:04:52;;;;;;;3.53;2.40;;;4.20;99.90;;;;;;5011893;28;20656;-76
2023/12/16 07:07:18;;;;;;;4.80;3.15;;;4.20;99.90;;;;;;5012829;28;20610;-76
2023/12/16 07:09:45;;;;;;;3.47;3.10;;;4.20;99.90;;;;;;5011734;28;20672;-76
2023/12/16 07:12:12;;;;;;;3.10;2.53;;;4.30;99.90;;;;;;5011815;28;20240;-76
2023/12/16 07:14:38;;;;;;;4.38;3.47;;;4.30;99.90;;;;;;5011380;28;20206;-75
2023/12/16 07:17:07;;;;;;;4.72;2.80;;;4.20;99.90;;;;;;5011500;28;20631;-77
2023/12/16 07:19:34;;;;;;;4.90;3.55;;;4.30;99.90;;;;;;5014578;28;20228;-77
2023/12/16 07:22:01;;;;;;;3.15;2.58;;;4.20;99.90;;;;;;5014720;28;20227;-76
2023/12/16 07:24:28;;;;;;;3.67;3.17;;;4.20;99.90;;;;;;5015292;28;20567;-77
2023/12/16 07:26:55;;;;;;;4.28;2.45;;;4.20;99.90;;;;;;5015396;28;20213;-77
2023/12/16 07:29:22;;;;;;;3.30;2.53;;;4.20;99.90;;;;;;5014447;28;20206;-76
2023/12/16 07:31:49;;;;;;;3.78;2.85;;;4.20;99.90;;;;;;5014992;28;20733;-76
2023/12/16 07:34:17;;;;;;;2.22;2.03;;;4.20;99.90;;;;;;5014584;28;20214;-76
2023/12/16 07:36:45;;;;;;;2.80;2.40;;;4.20;99.90;;;;;;5014750;28;20212;-76
2023/12/16 07:39:11;;;;;;;3.10;2.42;;;4.20;99.90;;;;;;5014211;28;20232;-76
2023/12/16 07:41:38;;;;;;;3.42;2.65;;;4.20;99.90;;;;;;5015488;28;20237;-75
2023/12/16 07:44:05;;;;;;;2.80;2.60;;;4.30;99.90;;;;;;5014276;28;20570;-76
2023/12/16 07:46:32;;;;;;;4.68;3.10;;;4.30;99.90;;;;;;5016410;28;20215;-74
2023/12/16 07:48:59;;;;;;;3.78;3.40;;;4.30;99.90;;;;;;5015814;28;20219;-76
2023/12/16 07:51:27;;;;;;;2.63;2.25;;;4.30;99.90;;;;;;5014775;28;20230;-76
2023/12/16 07:53:55;;;;;;;4.07;3.17;;;4.30;99.90;;;;;;5014565;28;20298;-76
2023/12/16 07:56:23;;;;;;;4.20;2.67;;;4.30;99.90;;;;;;5014772;28;20208;-76
2023/12/16 07:58:49;;;;;;;4.20;2.65;;;4.30;99.90;;;;;;5014351;28;20574;-77
2023/12/16 08:01:17;;;;;;;2.78;2.58;;;4.30;99.90;;;;;;5014269;28;20257;-77
2023/12/16 08:03:44;;;;;;;4.07;2.55;;;4.30;99.90;;;;;;5014512;28;20207;-76
2023/12/16 08:06:11;;;;;;;2.58;2.05;;;4.20;99.90;;;;;;5014296;28;20637;-76
2023/12/16 08:08:40;;;;;;;3.58;2.53;;;4.20;99.90;;;;;;5014356;28;20238;-76
2023/12/16 08:11:07;;;;;;;3.00;2.80;;;4.30;99.90;;;;;;5014150;28;20237;-76
2023/12/16 08:13:34;;;;;;;5.22;2.92;;;4.30;99.90;;;;;;5014211;28;20634;-76
2023/12/16 08:16:02;;;;;;;4.15;3.35;;;4.30;99.90;;;;;;5014197;28;20651;-76
2023/12/16 08:18:29;;;;;;;3.38;3.00;;;4.30;99.90;;;;;;5014012;28;20218;-76
2023/12/16 08:20:56;;;;;;;2.53;2.30;;;4.40;99.90;;;;;;5014094;28;20245;-77
2023/12/16 08:23:22;;;;;;;3.63;2.25;;;4.40;99.90;;;;;;5014061;28;20217;-76
2023/12/16 08:25:51;;;;;;;3.40;3.10;;;4.40;99.90;;;;;;5014077;28;20316;-76
2023/12/16 08:28:17;;;;;;;4.55;2.08;;;4.40;99.90;;;;;;5013525;28;20208;-76
2023/12/16 08:30:46;;;;;;;2.28;1.85;;;4.40;99.90;;;;;;5012470;28;20706;-76
2023/12/16 08:33:13;;;;;;;3.22;2.72;;;4.50;99.90;;;;;;5013656;28;20216;-76
2023/12/16 08:35:43;;;;;;;3.50;2.58;;;4.50;99.90;;;;;;5013939;28;20213;-77
2023/12/16 08:38:10;;;;;;;4.18;2.42;;;4.50;99.90;;;;;;5013874;28;20208;-77
2023/12/16 08:40:37;;;;;;;3.60;3.30;;;4.50;99.90;;;;;;5013678;28;20238;-77
2023/12/16 08:43:05;;;;;;;3.60;2.45;;;4.40;99.90;;;;;;5013813;28;20209;-76
2023/12/16 08:45:32;;;;;;;4.97;2.53;;;4.40;99.90;;;;;;5013726;28;20212;-76
2023/12/16 08:47:58;;;;;;;4.50;2.70;;;4.40;99.90;;;;;;5013630;28;20218;-76
2023/12/16 08:50:25;;;;;;;2.95;2.33;;;4.40;99.90;;;;;;5005408;28;20210;-75
2023/12/16 08:52:52;;;;;;;3.45;2.33;;;4.40;99.90;;;;;;5013549;28;20301;-76
2023/12/16 08:55:19;;;;;;;3.63;2.47;;;4.50;99.90;;;;;;5013258;28;20232;-76
2023/12/16 08:57:46;;;;;;;3.25;2.35;;;4.50;99.90;;;;;;5013347;28;20228;-76
2023/12/16 09:00:14;;;;;;;3.03;2.47;;;4.50;99.90;;;;;;5013004;28;20227;-76
2023/12/16 09:02:41;;;;;;;3.00;2.38;;;4.60;99.90;;;;;;5013607;28;20210;-76
2023/12/16 09:05:09;;;;;;;3.53;2.65;;;4.60;99.90;;;;;;5013098;28;20211;-76
2023/12/16 09:07:36;;;;;;;5.78;2.38;;;4.70;99.90;;;;;;5013395;28;20727;-76
2023/12/16 09:10:03;;;;;;;2.35;2.00;;;4.70;99.90;;;;;;5012963;28;20210;-76
2023/12/16 09:12:29;;;;;;;2.65;2.45;;;4.70;99.90;;;;;;5013277;28;20227;-76
2023/12/16 09:14:56;;;;;;;3.00;2.70;;;4.80;99.90;;;;;;5012887;28;20207;-76
2023/12/16 09:17:24;;;;;;;2.78;2.50;;;4.90;99.90;;;;;;5012836;28;20217;-76
2023/12/16 09:19:51;;;;;;;3.13;2.83;;;4.90;99.90;;;;;;5012793;28;20612;-75
2023/12/16 09:22:19;;;;;;;2.30;2.10;;;4.90;99.90;;;;;;5012713;28;20234;-76
2023/12/16 09:24:46;;;;;;;3.70;2.25;;;5.00;99.90;;;;;;5012990;28;20216;-76
2023/12/16 09:27:13;;;;;;;3.53;3.03;;;5.10;99.90;;;;;;5012517;28;20592;-76
2023/12/16 09:29:40;;;;;;;3.70;2.50;;;5.10;99.90;;;;;;5012601;28;20702;-76
2023/12/16 09:32:08;;;;;;;3.58;2.78;;;5.20;99.90;;;;;;5012597;28;20234;-76
2023/12/16 09:34:36;;;;;;;2.70;2.42;;;5.20;99.90;;;;;;5012848;28;20233;-77
2023/12/16 09:37:02;;;;;;;2.78;2.33;;;5.30;99.90;;;;;;5012585;28;20207;-76
2023/12/16 09:39:29;;;;;;;4.55;2.38;;;5.30;99.90;;;;;;5012378;28;20227;-75
2023/12/16 09:41:57;;;;;;;3.55;2.58;;;5.40;99.90;;;;;;5012320;28;20240;-76
2023/12/16 09:44:25;;;;;;;3.47;2.45;;;5.40;99.90;;;;;;5012639;28;20213;-76
2023/12/16 09:46:56;;;;;;;3.83;3.28;;;5.40;99.90;;;;;;5012657;28;20211;-77
2023/12/16 09:49:27;;;;;;;3.00;2.60;;;5.40;99.90;;;;;;5012626;28;20226;-76
2023/12/16 09:51:55;;;;;;;2.15;1.92;;;5.40;99.90;;;;;;5013029;28;20234;-77
2023/12/16 09:54:21;;;;;;;2.80;2.30;;;5.40;99.90;;;;;;5012533;28;20579;-76
2023/12/16 09:56:50;;;;;;;3.15;2.53;;;5.40;99.90;;;;;;5012614;28;20214;-77
2023/12/16 09:59:17;;;;;;;2.38;2.20;;;5.40;99.90;;;;;;5012404;28;20222;-76
2023/12/16 10:01:50;;;;;;;2.25;1.80;;;5.40;99.90;;;;;;5013180;28;20223;-77
2023/12/16 10:04:17;;;;;;;3.33;2.95;;;5.40;99.90;;;;;;5012456;28;20210;-77
2023/12/16 10:06:44;;;;;;;2.72;2.53;;;5.40;99.90;;;;;;5012457;28;20202;-76
2023/12/16 10:09:13;;;;;;;3.50;2.40;;;5.40;99.90;;;;;;5011835;28;20216;-75
2023/12/16 10:11:40;;;;;;;2.90;2.40;;;5.40;99.90;;;;;;5012196;28;20231;-76
2023/12/16 10:14:07;;;;;;;4.32;2.60;;;5.50;99.90;;;;;;5012183;28;20256;-76
2023/12/16 10:16:34;;;;;;;3.20;2.60;;;5.50;99.90;;;;;;5011865;28;20202;-76
2023/12/16 10:19:01;;;;;;;3.30;2.80;;;5.60;99.90;;;;;;5011830;28;20212;-76
2023/12/16 10:21:30;;;;;;;4.45;3.20;;;5.60;99.90;;;;;;5012003;28;20230;-76
2023/12/16 10:23:57;;;;;;;2.80;2.50;;;5.60;99.90;;;;;;5011724;28;20301;-76
2023/12/16 10:26:26;;;;;;;2.88;2.10;;;5.60;99.90;;;;;;5011552;28;20207;-76
2023/12/16 10:28:54;;;;;;;4.88;2.10;;;5.60;99.90;;;;;;5012112;28;20206;-76
2023/12/16 10:31:22;;;;;;;2.28;2.10;;;5.70;99.90;;;;;;5011724;28;20262;-77
2023/12/16 10:33:49;;;;;;;3.70;2.72;;;5.70;99.90;;;;;;5012147;28;20209;-76
2023/12/16 10:36:16;;;;;;;3.05;2.58;;;5.80;99.90;;;;;;5065396;22;20213;-95
2023/12/16 10:38:43;;;;;;;2.88;2.40;;;5.80;99.90;;;;;;5056372;28;20213;-95
2023/12/16 10:41:10;;;;;;;4.72;2.88;;;5.90;99.90;;;;;;5055152;28;20213;-96
2023/12/16 10:43:40;;;;;;;2.78;2.47;;;5.90;99.90;;;;;;5055575;28;20194;-95
2023/12/16 10:46:07;;;;;;;4.22;2.92;;;5.90;99.90;;;;;;5055883;28;20190;-93
2023/12/16 10:48:37;;;;;;;3.03;2.55;;;6.00;99.90;;;;;;5054498;28;20265;-94
2023/12/16 10:57:18;;;;;;;3.25;2.25;;;6.10;99.90;;;;;;5024383;23;20253;-74
2023/12/16 10:59:59;;;;;;;3.40;2.70;;;6.20;99.90;;;;;;5011840;28;20207;-75
2023/12/16 11:02:28;;;;;;;3.78;3.00;;;6.20;99.90;;;;;;5010819;28;20323;-75
2023/12/16 11:04:59;;;;;;;2.67;2.47;;;6.40;99.90;;;;;;5011916;28;20207;-77
2023/12/16 11:07:29;;;;;;;3.00;2.65;;;6.50;99.90;;;;;;5010824;28;20218;-76
2023/12/16 11:09:56;;;;;;;2.70;2.30;;;6.60;99.90;;;;;;5011883;28;20210;-76
2023/12/16 11:12:23;;;;;;;3.10;2.40;;;6.60;99.90;;;;;;5011283;28;20647;-76
2023/12/16 11:14:54;;;;;;;6.00;2.70;;;6.60;99.90;;;;;;5011798;28;20207;-76
2023/12/16 11:17:27;;;;;;;4.68;3.63;;;6.60;99.90;;;;;;5011103;28;20731;-76
2023/12/16 11:19:59;;;;;;;3.47;3.05;;;6.70;99.90;;;;;;5011874;28;20300;-76
2023/12/16 11:22:26;;;;;;;2.28;2.08;;;6.80;99.90;;;;;;5010929;28;20230;-77
2023/12/16 11:24:53;;;;;;;3.70;3.35;;;6.80;99.90;;;;;;5011637;28;20207;-77
2023/12/16 11:27:20;;;;;;;3.58;2.88;;;6.80;99.90;;;;;;5010874;28;20253;-76
2023/12/16 11:29:47;;;;;;;4.07;2.65;;;7.00;99.90;;;;;;5011703;28;20535;-76
2023/12/16 11:32:15;;;;;;;3.30;2.75;;;7.00;99.90;;;;;;5011102;28;20241;-76
2023/12/16 11:34:43;;;;;;;5.18;3.15;;;7.00;99.90;;;;;;5010863;28;20210;-76
2023/12/16 11:37:10;;;;;;;3.33;2.83;;;7.10;99.90;;;;;;5010858;28;20234;-75
2023/12/16 11:39:38;;;;;;;3.85;3.35;;;7.20;99.90;;;;;;5010725;28;20206;-77
2023/12/16 11:42:06;;;;;;;3.60;3.03;;;7.30;99.90;;;;;;5010880;28;20222;-77
2023/12/16 11:44:49;;;;;;;3.97;3.38;;;7.40;99.90;;;;;;5011094;28;20223;-77
2023/12/16 11:47:21;;;;;;;4.15;3.22;;;7.40;99.90;;;;;;5010772;28;20245;-77
2023/12/16 11:49:49;;;;;;;5.68;3.58;;;7.50;99.90;;;;;;5011086;28;20203;-77
2023/12/16 11:52:17;;;;;;;3.10;2.53;;;7.60;99.90;;;;;;5010521;28;20230;-76
2023/12/16 11:54:44;;;;;;;6.50;3.58;;;7.70;99.90;;;;;;5010737;28;20678;-77
2023/12/16 11:57:11;;;;;;;3.78;3.38;;;7.70;99.90;;;;;;5011163;28;20247;-76
2023/12/16 11:59:37;;;;;;;2.67;2.08;;;7.70;99.90;;;;;;5011048;28;20580;-76
2023/12/16 12:02:05;;;;;;;3.53;3.22;;;7.70;99.90;;;;;;5011380;28;20234;-76
2023/12/16 12:04:33;;;;;;;3.20;2.90;;;7.90;99.90;;;;;;5012646;28;20218;-76
2023/12/16 12:07:00;;;;;;;3.22;2.92;;;7.90;99.90;;;;;;5014680;28;20211;-76
2023/12/16 12:09:27;;;;;;;4.57;4.18;;;8.10;99.90;;;;;;5014198;28;20229;-76
2023/12/16 12:11:56;;;;;;;6.30;3.10;;;8.20;99.90;;;;;;5014366;28;20320;-75
2023/12/16 12:14:23;;;;;;;10.63;3.60;;;8.40;99.90;;;;;;5014163;28;20703;-76
2023/12/16 12:16:50;;;;;;;4.35;2.65;;;8.70;99.90;;;;;;5014172;28;20438;-75
2023/12/16 12:19:16;;;;;;;11.23;4.60;;;8.90;99.90;;;;;;5013604;28;20208;-77
2023/12/16 12:21:45;;;;;;;8.55;5.38;;;9.20;99.90;;;;;;5013932;28;20223;-77
2023/12/16 12:24:11;;;;;;;3.80;2.83;;;9.30;99.90;;;;;;5013618;28;20211;-76
2023/12/16 12:26:38;;;;;;;3.20;2.22;;;9.30;99.90;;;;;;5013682;28;20208;-76
2023/12/16 12:29:05;;;;;;;2.97;2.38;;;9.00;99.90;;;;;;5013262;28;20212;-76
2023/12/16 12:31:41;;;;;;;2.22;2.03;;;8.90;99.90;;;;;;5013725;28;20272;-76
2023/12/16 12:34:07;;;;;;;7.78;5.70;;;8.80;99.90;;;;;;5013679;28;20217;-76
2023/12/16 12:36:34;;;;;;;8.45;4.80;;;8.60;99.90;;;;;;5013260;28;20220;-76
2023/12/16 12:39:03;;;;;;;19.17;9.48;;;8.40;99.90;;;;;;5013242;28;20295;-75
2023/12/16 12:41:30;;;;;;;9.02;5.47;;;8.20;99.90;;;;;;5013170;28;20604;-76
2023/12/16 12:43:57;;;;;;;3.65;3.25;;;8.10;99.90;;;;;;5013465;28;20205;-76
2023/12/16 12:46:23;;;;;;;5.75;3.42;;;8.00;99.90;;;;;;5013216;28;20258;-76
2023/12/16 12:48:55;;;;;;;5.43;2.17;;;7.70;99.90;;;;;;5013575;28;20207;-76
2023/12/16 12:51:23;;;;;;;4.47;2.67;;;7.60;99.90;;;;;;5013259;28;20277;-75
2023/12/16 12:53:56;;;;;;;3.63;2.60;;;7.50;99.90;;;;;;5013226;28;20648;-76
2023/12/16 12:56:24;;;;;;;4.10;3.15;;;7.50;99.90;;;;;;5012819;28;20572;-76
2023/12/16 12:58:51;;;;;;;3.13;2.60;;;7.40;99.90;;;;;;5013254;28;20202;-78
2023/12/16 13:01:17;;;;;;;2.92;2.28;;;7.40;99.90;;;;;;5013554;28;20227;-77
2023/12/16 13:03:44;;;;;;;4.25;2.72;;;7.40;99.90;;;;;;5013581;28;20229;-76
2023/12/16 13:06:11;;;;;;;3.15;2.08;;;7.40;99.90;;;;;;5012919;28;20237;-76
2023/12/16 13:08:39;;;;;;;3.42;2.25;;;7.40;99.90;;;;;;5012801;28;20211;-76
2023/12/16 13:11:06;;;;;;;2.30;2.10;;;7.30;99.90;;;;;;5012999;28;20719;-77
2023/12/16 13:13:34;;;;;;;2.22;2.03;;;7.30;99.90;;;;;;5012922;28;20207;-76
2023/12/16 13:16:01;;;;;;;5.28;3.05;;;7.30;99.90;;;;;;5011894;28;20210;-75
2023/12/16 13:18:28;;;;;;;6.15;2.38;;;7.30;99.90;;;;;;5012421;28;20585;-77
2023/12/16 13:20:55;;;;;;;3.28;2.30;;;7.20;99.90;;;;;;5012862;28;20223;-77
2023/12/16 13:23:22;;;;;;;4.57;2.03;;;7.10;99.90;;;;;;5012527;28;20214;-77
2023/12/16 13:25:49;;;;;;;2.33;2.13;;;7.10;99.90;;;;;;5012641;28;20211;-77
2023/12/16 13:28:16;;;;;;;4.53;2.50;;;7.10;99.90;;;;;;5012371;28;20241;-76
2023/12/16 13:30:44;;;;;;;5.40;2.50;;;7.00;99.90;;;;;;5012607;28;20218;-77
2023/12/16 13:33:10;;;;;;;3.25;2.75;;;7.00;99.90;;;;;;5013399;28;20238;-77
2023/12/16 13:35:37;;;;;;;3.38;2.58;;;6.90;99.90;;;;;;5012915;28;20214;-76
2023/12/16 13:38:04;;;;;;;2.83;2.15;;;6.90;99.90;;;;;;5012546;28;20699;-77
2023/12/16 13:40:31;;;;;;;4.25;2.80;;;6.90;99.90;;;;;;5013187;28;20210;-77
2023/12/16 13:42:58;;;;;;;4.95;2.22;;;6.90;99.90;;;;;;5012910;28;20213;-76
2023/12/16 13:45:24;;;;;;;2.58;2.15;;;6.90;99.90;;;;;;5011968;28;20217;-77
2023/12/16 13:47:52;;;;;;;6.63;2.97;;;6.90;99.90;;;;;;5012401;28;20225;-76
2023/12/16 13:50:20;;;;;;;2.33;1.95;;;6.90;99.90;;;;;;5012057;28;20605;-77
2023/12/16 13:52:49;;;;;;;2.95;2.50;;;7.00;99.90;;;;;;5012927;28;20253;-76
2023/12/16 13:55:17;;;;;;;4.25;2.88;;;7.00;99.90;;;;;;5012573;28;20751;-77
2023/12/16 13:57:45;;;;;;;3.83;2.90;;;7.00;99.90;;;;;;5012520;28;20206;-77
2023/12/16 14:00:13;;;;;;;4.28;2.60;;;7.00;99.90;;;;;;5011929;28;20214;-77
2023/12/16 14:02:39;;;;;;;27.67;13.70;;;7.00;99.90;;;;;;5013763;28;20230;-76
2023/12/16 14:05:09;;;;;;;8.90;6.60;;;6.90;99.90;;;;;;5014928;28;20226;-76
2023/12/16 14:07:36;;;;;;;11.77;5.40;;;6.90;99.90;;;;;;5013739;28;20588;-77
2023/12/16 14:10:03;;;;;;;5.43;4.38;;;7.00;99.90;;;;;;5012705;28;20211;-76
2023/12/16 14:12:29;;;;;;;3.67;3.10;;;6.90;99.90;;;;;;5012963;28;20231;-76
2023/12/16 14:14:56;;;;;;;7.05;2.30;;;6.90;99.90;;;;;;5012256;28;20206;-75
2023/12/16 14:17:23;;;;;;;3.35;2.35;;;6.90;99.90;;;;;;5011926;28;20210;-77
2023/12/16 14:19:49;;;;;;;6.72;2.92;;;6.80;99.90;;;;;;5006879;28;20571;-76
2023/12/16 14:22:21;;;;;;;3.65;2.85;;;6.80;99.90;;;;;;5011828;28;20230;-77
2023/12/16 14:24:47;;;;;;;2.90;2.58;;;6.70;99.90;;;;;;5011844;28;20253;-76
2023/12/16 14:27:14;;;;;;;3.88;2.45;;;6.70;99.90;;;;;;5011913;28;20589;-76
2023/12/16 14:29:41;;;;;;;5.90;2.67;;;6.70;99.90;;;;;;5011200;28;20213;-76
2023/12/16 14:32:07;;;;;;;5.28;3.70;;;6.70;99.90;;;;;;5011848;28;20225;-76
2023/12/16 14:34:34;;;;;;;6.57;4.97;;;6.60;99.90;;;;;;5011594;28;20592;-76
2023/12/16 14:37:01;;;;;;;11.27;7.30;;;6.60;99.90;;;;;;5012149;28;20206;-78
2023/12/16 14:39:29;;;;;;;12.45;5.18;;;6.60;99.90;;;;;;5014794;28;20625;-77
2023/12/16 14:41:56;;;;;;;4.95;3.20;;;6.60;99.90;;;;;;5015881;28;20230;-77
2023/12/16 14:44:22;;;;;;;3.22;2.60;;;6.50;99.90;;;;;;5013813;28;20207;-77
2023/12/16 14:46:50;;;;;;;1.98;1.70;;;6.50;99.90;;;;;;5011469;28;20210;-77
2023/12/16 14:49:17;;;;;;;4.13;2.33;;;6.50;99.90;;;;;;5011199;28;20257;-77
2023/12/16 14:51:43;;;;;;;3.67;1.98;;;6.60;99.90;;;;;;5011288;28;20281;-77
2023/12/16 14:54:10;;;;;;;1.95;1.75;;;6.60;99.90;;;;;;5011567;28;20227;-76
2023/12/16 14:56:38;;;;;;;3.25;2.47;;;6.60;99.90;;;;;;5011629;28;20671;-76
2023/12/16 14:59:05;;;;;;;3.58;3.13;;;6.50;99.90;;;;;;5011401;28;20218;-77
2023/12/16 15:01:31;;;;;;;3.30;1.88;;;6.50;99.90;;;;;;5011057;28;20227;-76
2023/12/16 15:03:59;;;;;;;3.05;2.10;;;6.50;99.90;;;;;;5011262;28;20473;-77
2023/12/16 15:06:26;;;;;;;3.38;2.55;;;6.50;99.90;;;;;;5007727;28;20577;-76
2023/12/16 15:08:52;;;;;;;5.30;2.33;;;6.40;99.90;;;;;;5011054;28;20205;-75
2023/12/16 15:11:19;;;;;;;4.32;1.60;;;6.40;99.90;;;;;;5011241;28;20606;-76
2023/12/16 15:13:48;;;;;;;2.47;2.28;;;6.30;99.90;;;;;;5011082;28;20218;-75
2023/12/16 15:16:15;;;;;;;3.88;2.17;;;6.30;99.90;;;;;;5011720;28;20892;-77
2023/12/16 15:18:42;;;;;;;1.73;1.60;;;6.20;99.90;;;;;;5011915;28;20207;-77
2023/12/16 15:21:09;;;;;;;1.80;1.52;;;6.10;99.90;;;;;;5011437;28;20230;-76
2023/12/16 15:23:35;;;;;;;3.05;2.05;;;6.00;99.90;;;;;;5011656;28;20213;-76
2023/12/16 15:26:02;;;;;;;5.03;2.60;;;5.90;99.90;;;;;;5011993;28;20211;-76
2023/12/16 15:28:29;;;;;;;2.90;2.00;;;5.90;99.90;;;;;;5011314;28;20211;-78
2023/12/16 15:30:58;;;;;;;3.40;1.88;;;5.80;99.90;;;;;;5007785;28;20230;-77
2023/12/16 15:33:25;;;;;;;4.40;2.53;;;5.70;99.90;;;;;;5012009;28;20206;-77
2023/12/16 15:35:52;;;;;;;6.13;2.95;;;5.60;99.90;;;;;;5011630;28;20698;-77
2023/12/16 15:38:18;;;;;;;5.80;2.60;;;5.50;99.90;;;;;;5011785;28;20210;-77
2023/12/16 15:40:45;;;;;;;5.63;2.58;;;5.40;99.90;;;;;;5014965;28;20253;-77
2023/12/16 15:43:12;;;;;;;6.15;2.55;;;5.40;99.90;;;;;;5015630;28;20776;-77
2023/12/16 15:45:39;;;;;;;3.40;2.15;;;5.30;99.90;;;;;;5015853;28;20206;-77
2023/12/16 15:48:07;;;;;;;4.72;2.53;;;5.20;99.90;;;;;;5015851;28;20210;-76
2023/12/16 15:50:34;;;;;;;1.65;1.50;;;5.10;99.90;;;;;;5015022;28;20242;-77
2023/12/16 15:53:01;;;;;;;5.90;2.03;;;4.90;99.90;;;;;;5014774;28;20745;-77
2023/12/16 15:55:27;;;;;;;2.17;1.48;;;4.80;99.90;;;;;;5014756;28;20210;-78
2023/12/16 15:57:54;;;;;;;3.95;2.40;;;4.70;99.90;;;;;;5015394;28;20210;-76
2023/12/16 16:00:21;;;;;;;2.67;1.63;;;4.60;99.90;;;;;;5015122;28;20229;-77
2023/12/16 16:02:49;;;;;;;4.30;2.25;;;4.50;99.90;;;;;;5015769;28;20486;-77
2023/12/16 16:05:18;;;;;;;1.95;1.75;;;4.40;99.90;;;;;;5015559;28;20365;-77
2023/12/16 16:07:45;;;;;;;1.60;1.50;;;4.20;99.90;;;;;;5015181;28;20214;-78
2023/12/16 16:10:12;;;;;;;2.63;2.35;;;4.10;99.90;;;;;;5016312;28;20300;-78
2023/12/16 16:12:39;;;;;;;2.80;1.52;;;4.00;99.90;;;;;;5015106;28;20232;-77
2023/12/16 16:15:06;;;;;;;4.00;1.92;;;4.00;99.90;;;;;;5012297;28;20236;-77
2023/12/16 16:17:33;;;;;;;2.10;1.70;;;3.90;99.90;;;;;;5014304;28;20276;-78
2023/12/16 16:20:00;;;;;;;5.22;2.20;;;3.80;99.90;;;;;;5013709;28;20699;-78
2023/12/16 16:22:28;;;;;;;2.45;2.15;;;3.70;99.90;;;;;;5010167;28;20228;-77
2023/12/16 16:24:55;;;;;;;3.80;2.67;;;3.60;99.90;;;;;;5014142;28;20210;-77
2023/12/16 16:27:22;;;;;;;4.88;1.88;;;3.60;99.90;;;;;;5014422;28;20232;-77
2023/12/16 16:29:49;;;;;;;4.05;2.53;;;3.50;99.90;;;;;;5013102;28;20206;-76
2023/12/16 16:32:16;;;;;;;6.05;3.28;;;3.40;99.90;;;;;;5013971;28;20272;-77
2023/12/16 16:34:43;;;;;;;4.30;3.55;;;3.30;99.90;;;;;;5013362;28;20563;-77
2023/12/16 16:37:10;;;;;;;3.55;2.58;;;3.30;99.90;;;;;;5256467;22;20235;-78
2023/12/16 16:39:40;;;;;;;2.72;2.53;;;3.20;99.90;;;;;;5012849;28;20241;-77
2023/12/16 16:42:07;;;;;;;3.22;2.30;;;3.10;99.90;;;;;;5013089;28;20244;-77
2023/12/16 16:44:34;;;;;;;6.38;3.05;;;3.10;99.90;;;;;;5012213;28;20316;-77
2023/12/16 16:47:03;;;;;;;5.13;2.75;;;3.10;99.90;;;;;;5012915;28;20259;-73
2023/12/16 16:49:30;;;;;;;3.70;2.80;;;3.00;99.90;;;;;;5006783;28;20216;-77
2023/12/16 16:51:57;;;;;;;2.80;2.60;;;3.00;99.90;;;;;;5010761;28;20232;-77
2023/12/16 16:54:24;;;;;;;5.30;2.40;;;2.90;99.90;;;;;;5012925;28;20302;-77
2023/12/16 16:56:54;;;;;;;2.78;2.35;;;2.80;99.90;;;;;;5012866;28;20303;-77
2023/12/16 16:59:21;;;;;;;14.55;3.75;;;2.80;99.90;;;;;;5012657;28;20258;-77
2023/12/16 17:01:48;;;;;;;6.22;4.65;;;2.80;99.90;;;;;;5012670;28;20263;-78
2023/12/16 17:04:15;;;;;;;17.25;6.80;;;2.70;99.90;;;;;;5013537;28;20211;-77
2023/12/16 17:06:42;;;;;;;15.82;10.18;;;2.70;99.90;;;;;;5013288;28;20214;-78
2023/12/16 17:09:10;;;;;;;11.75;5.15;;;2.60;99.90;;;;;;5011605;28;20307;-77
2023/12/16 17:11:38;;;;;;;6.97;4.50;;;2.60;99.90;;;;;;5010102;28;20240;-74
2023/12/16 17:14:09;;;;;;;5.97;2.85;;;2.60;99.90;;;;;;5010265;28;20216;-75
2023/12/16 17:16:39;;;;;;;4.85;2.70;;;2.50;99.90;;;;;;5013175;28;20221;-74
2023/12/16 17:19:08;;;;;;;5.82;2.30;;;2.50;99.90;;;;;;5012976;28;20215;-75
2023/12/16 17:21:36;;;;;;;5.82;2.28;;;2.40;99.90;;;;;;5013280;28;20316;-74
2023/12/16 17:24:04;;;;;;;3.30;3.00;;;2.40;99.90;;;;;;5013816;28;20219;-76
2023/12/16 17:26:32;;;;;;;4.78;3.25;;;2.40;99.90;;;;;;5013116;28;20207;-74
2023/12/16 17:28:59;;;;;;;1.77;1.65;;;2.40;99.90;;;;;;5012823;28;20633;-74
2023/12/16 17:31:29;;;;;;;3.42;2.42;;;2.30;99.90;;;;;;5004852;28;20232;-74
2023/12/16 17:33:57;;;;;;;4.68;2.20;;;2.30;99.90;;;;;;5012957;28;20203;-74